sensor_id;sensor_type;location;lat;lon;timestamp;P1;durP1;ratioP1;P2;durP2;ratioP2
15806;SDS011;8005;51.368;6.140;2022-07-17T00:00:44;5.90;;;2.40;;
15806;SDS011;8005;51.368;6.140;2022-07-17T00:02:16;6.72;;;2.38;;
15806;SDS011;8005;51.368;6.140;2022-07-17T00:04:00;8.20;;;1.48;;
15806;SDS011;8005;51.368;6.140;2022-07-17T00:05:32;5.82;;;1.10;;
15806;SDS011;8005;51.368;6.140;2022-07-17T00:07:05;6.25;;;1.20;;
15806;SDS011;8005;51.368;6.140;2022-07-17T00:08:39;3.33;;;1.23;;
15806;SDS011;8005;51.368;6.140;2022-07-17T00:10:11;8.00;;;1.42;;
15806;SDS011;8005;51.368;6.140;2022-07-17T00:11:43;8.10;;;1.98;;
15806;SDS011;8005;51.368;6.140;2022-07-17T00:13:15;3.07;;;1.20;;
15806;SDS011;8005;51.368;6.140;2022-07-17T00:14:47;6.10;;;1.20;;
15806;SDS011;8005;51.368;6.140;2022-07-17T00:16:19;10.68;;;2.10;;
15806;SDS011;8005;51.368;6.140;2022-07-17T00:17:51;4.30;;;1.55;;
15806;SDS011;8005;51.368;6.140;2022-07-17T00:19:25;9.88;;;1.98;;
15806;SDS011;8005;51.368;6.140;2022-07-17T00:20:57;4.35;;;1.20;;
15806;SDS011;8005;51.368;6.140;2022-07-17T00:22:29;5.32;;;1.33;;
15806;SDS011;8005;51.368;6.140;2022-07-17T00:24:01;5.68;;;1.88;;
15806;SDS011;8005;51.368;6.140;2022-07-17T00:25:33;4.65;;;1.50;;
15806;SDS011;8005;51.368;6.140;2022-07-17T00:27:05;6.03;;;1.25;;
15806;SDS011;8005;51.368;6.140;2022-07-17T00:28:37;7.50;;;1.80;;
15806;SDS011;8005;51.368;6.140;2022-07-17T00:30:09;6.00;;;1.42;;
15806;SDS011;8005;51.368;6.140;2022-07-17T00:31:42;6.40;;;1.75;;
15806;SDS011;8005;51.368;6.140;2022-07-17T00:33:14;6.88;;;1.45;;
15806;SDS011;8005;51.368;6.140;2022-07-17T00:34:47;9.10;;;1.70;;
15806;SDS011;8005;51.368;6.140;2022-07-17T00:36:19;6.05;;;1.33;;
15806;SDS011;8005;51.368;6.140;2022-07-17T00:37:51;9.13;;;1.80;;
15806;SDS011;8005;51.368;6.140;2022-07-17T00:39:26;6.63;;;2.30;;
15806;SDS011;8005;51.368;6.140;2022-07-17T00:40:58;5.22;;;1.52;;
15806;SDS011;8005;51.368;6.140;2022-07-17T00:42:30;8.45;;;2.00;;
15806;SDS011;8005;51.368;6.140;2022-07-17T00:44:06;4.97;;;1.77;;
15806;SDS011;8005;51.368;6.140;2022-07-17T00:45:39;8.07;;;1.83;;
15806;SDS011;8005;51.368;6.140;2022-07-17T00:47:23;7.72;;;2.10;;
15806;SDS011;8005;51.368;6.140;2022-07-17T00:48:55;4.75;;;2.13;;
15806;SDS011;8005;51.368;6.140;2022-07-17T00:50:31;8.35;;;2.42;;
15806;SDS011;8005;51.368;6.140;2022-07-17T00:52:12;6.75;;;2.60;;
15806;SDS011;8005;51.368;6.140;2022-07-17T00:53:51;6.63;;;1.80;;
15806;SDS011;8005;51.368;6.140;2022-07-17T00:55:23;5.93;;;1.67;;
15806;SDS011;8005;51.368;6.140;2022-07-17T00:57:34;7.40;;;1.75;;
15806;SDS011;8005;51.368;6.140;2022-07-17T00:59:08;9.60;;;2.22;;
15806;SDS011;8005;51.368;6.140;2022-07-17T01:00:41;7.40;;;2.00;;
15806;SDS011;8005;51.368;6.140;2022-07-17T01:02:13;7.55;;;2.33;;
15806;SDS011;8005;51.368;6.140;2022-07-17T01:03:45;7.25;;;1.98;;
15806;SDS011;8005;51.368;6.140;2022-07-17T01:07:07;6.28;;;2.15;;
15806;SDS011;8005;51.368;6.140;2022-07-17T01:08:59;7.55;;;2.30;;
15806;SDS011;8005;51.368;6.140;2022-07-17T01:10:31;6.45;;;1.60;;
15806;SDS011;8005;51.368;6.140;2022-07-17T01:12:05;6.03;;;1.85;;
15806;SDS011;8005;51.368;6.140;2022-07-17T01:13:40;4.88;;;1.98;;
15806;SDS011;8005;51.368;6.140;2022-07-17T01:15:14;6.95;;;1.95;;
15806;SDS011;8005;51.368;6.140;2022-07-17T01:16:47;7.60;;;1.83;;
15806;SDS011;8005;51.368;6.140;2022-07-17T01:18:24;5.75;;;2.30;;
15806;SDS011;8005;51.368;6.140;2022-07-17T01:19:56;4.55;;;1.88;;
15806;SDS011;8005;51.368;6.140;2022-07-17T01:21:38;7.45;;;2.00;;
15806;SDS011;8005;51.368;6.140;2022-07-17T01:23:17;9.00;;;1.92;;
15806;SDS011;8005;51.368;6.140;2022-07-17T01:24:50;3.97;;;2.15;;
15806;SDS011;8005;51.368;6.140;2022-07-17T01:26:22;7.85;;;2.03;;
15806;SDS011;8005;51.368;6.140;2022-07-17T01:28:04;6.03;;;2.20;;
15806;SDS011;8005;51.368;6.140;2022-07-17T01:29:39;9.80;;;2.67;;
15806;SDS011;8005;51.368;6.140;2022-07-17T01:31:11;6.30;;;1.50;;
15806;SDS011;8005;51.368;6.140;2022-07-17T01:32:43;4.57;;;1.80;;
15806;SDS011;8005;51.368;6.140;2022-07-17T01:34:15;6.10;;;2.13;;
15806;SDS011;8005;51.368;6.140;2022-07-17T01:35:50;4.30;;;1.50;;
15806;SDS011;8005;51.368;6.140;2022-07-17T01:37:22;5.05;;;1.50;;
15806;SDS011;8005;51.368;6.140;2022-07-17T01:39:04;9.80;;;2.17;;
15806;SDS011;8005;51.368;6.140;2022-07-17T01:42:09;3.63;;;1.42;;
15806;SDS011;8005;51.368;6.140;2022-07-17T01:43:42;6.43;;;1.75;;
15806;SDS011;8005;51.368;6.140;2022-07-17T01:45:15;5.72;;;1.60;;
15806;SDS011;8005;51.368;6.140;2022-07-17T01:49:12;5.60;;;2.58;;
15806;SDS011;8005;51.368;6.140;2022-07-17T01:50:49;3.58;;;1.60;;
15806;SDS011;8005;51.368;6.140;2022-07-17T01:52:25;5.03;;;1.48;;
15806;SDS011;8005;51.368;6.140;2022-07-17T01:55:49;5.65;;;1.40;;
15806;SDS011;8005;51.368;6.140;2022-07-17T01:57:21;5.93;;;1.83;;
15806;SDS011;8005;51.368;6.140;2022-07-17T01:58:54;6.53;;;1.80;;
15806;SDS011;8005;51.368;6.140;2022-07-17T02:00:31;8.00;;;1.98;;
15806;SDS011;8005;51.368;6.140;2022-07-17T02:02:28;10.02;;;1.83;;
15806;SDS011;8005;51.368;6.140;2022-07-17T02:04:00;5.28;;;1.45;;
15806;SDS011;8005;51.368;6.140;2022-07-17T02:05:34;6.15;;;2.00;;
15806;SDS011;8005;51.368;6.140;2022-07-17T02:07:07;5.55;;;1.75;;
15806;SDS011;8005;51.368;6.140;2022-07-17T02:08:50;7.75;;;1.85;;
15806;SDS011;8005;51.368;6.140;2022-07-17T02:10:26;5.35;;;1.55;;
15806;SDS011;8005;51.368;6.140;2022-07-17T02:12:13;6.38;;;1.48;;
15806;SDS011;8005;51.368;6.140;2022-07-17T02:15:57;5.45;;;1.60;;
15806;SDS011;8005;51.368;6.140;2022-07-17T02:17:31;4.18;;;1.40;;
15806;SDS011;8005;51.368;6.140;2022-07-17T02:19:09;5.07;;;1.60;;
15806;SDS011;8005;51.368;6.140;2022-07-17T02:20:43;5.63;;;1.45;;
15806;SDS011;8005;51.368;6.140;2022-07-17T02:22:19;6.82;;;1.60;;
15806;SDS011;8005;51.368;6.140;2022-07-17T02:23:52;5.55;;;1.50;;
15806;SDS011;8005;51.368;6.140;2022-07-17T02:25:24;8.02;;;1.60;;
15806;SDS011;8005;51.368;6.140;2022-07-17T02:26:59;7.00;;;1.42;;
15806;SDS011;8005;51.368;6.140;2022-07-17T02:28:34;4.03;;;1.60;;
15806;SDS011;8005;51.368;6.140;2022-07-17T02:30:08;8.35;;;1.98;;
15806;SDS011;8005;51.368;6.140;2022-07-17T02:31:44;7.90;;;2.13;;
15806;SDS011;8005;51.368;6.140;2022-07-17T02:33:17;6.78;;;1.70;;
15806;SDS011;8005;51.368;6.140;2022-07-17T02:34:49;9.65;;;1.50;;
15806;SDS011;8005;51.368;6.140;2022-07-17T02:36:24;5.70;;;1.52;;
15806;SDS011;8005;51.368;6.140;2022-07-17T02:37:56;8.82;;;1.70;;
15806;SDS011;8005;51.368;6.140;2022-07-17T02:39:31;7.65;;;1.52;;
15806;SDS011;8005;51.368;6.140;2022-07-17T02:41:05;7.55;;;1.48;;
15806;SDS011;8005;51.368;6.140;2022-07-17T02:42:38;6.30;;;1.60;;
15806;SDS011;8005;51.368;6.140;2022-07-17T02:44:10;7.65;;;1.58;;
15806;SDS011;8005;51.368;6.140;2022-07-17T02:47:29;3.28;;;1.30;;
15806;SDS011;8005;51.368;6.140;2022-07-17T02:49:03;6.90;;;2.00;;
15806;SDS011;8005;51.368;6.140;2022-07-17T02:50:35;8.07;;;1.67;;
15806;SDS011;8005;51.368;6.140;2022-07-17T02:52:07;6.78;;;2.08;;
15806;SDS011;8005;51.368;6.140;2022-07-17T02:53:39;6.90;;;2.13;;
15806;SDS011;8005;51.368;6.140;2022-07-17T02:55:12;4.20;;;1.40;;
15806;SDS011;8005;51.368;6.140;2022-07-17T02:56:44;7.13;;;2.03;;
15806;SDS011;8005;51.368;6.140;2022-07-17T02:58:17;5.50;;;1.88;;
15806;SDS011;8005;51.368;6.140;2022-07-17T02:59:49;4.90;;;1.77;;
15806;SDS011;8005;51.368;6.140;2022-07-17T03:01:21;5.13;;;1.70;;
15806;SDS011;8005;51.368;6.140;2022-07-17T03:02:59;9.50;;;1.98;;
15806;SDS011;8005;51.368;6.140;2022-07-17T03:04:33;5.22;;;1.80;;
15806;SDS011;8005;51.368;6.140;2022-07-17T03:06:08;4.78;;;1.77;;
15806;SDS011;8005;51.368;6.140;2022-07-17T03:07:40;5.93;;;1.92;;
15806;SDS011;8005;51.368;6.140;2022-07-17T03:09:22;5.82;;;1.92;;
15806;SDS011;8005;51.368;6.140;2022-07-17T03:10:54;5.63;;;1.60;;
15806;SDS011;8005;51.368;6.140;2022-07-17T03:12:26;4.00;;;1.58;;
15806;SDS011;8005;51.368;6.140;2022-07-17T03:13:59;8.27;;;1.83;;
15806;SDS011;8005;51.368;6.140;2022-07-17T03:15:32;5.60;;;1.55;;
15806;SDS011;8005;51.368;6.140;2022-07-17T03:17:04;4.75;;;2.05;;
15806;SDS011;8005;51.368;6.140;2022-07-17T03:18:38;6.72;;;1.67;;
15806;SDS011;8005;51.368;6.140;2022-07-17T03:20:11;4.50;;;1.90;;
15806;SDS011;8005;51.368;6.140;2022-07-17T03:21:43;6.15;;;1.80;;
15806;SDS011;8005;51.368;6.140;2022-07-17T03:23:15;6.47;;;1.80;;
15806;SDS011;8005;51.368;6.140;2022-07-17T03:24:47;9.00;;;1.90;;
15806;SDS011;8005;51.368;6.140;2022-07-17T03:26:19;5.15;;;1.98;;
15806;SDS011;8005;51.368;6.140;2022-07-17T03:27:51;7.15;;;2.28;;
15806;SDS011;8005;51.368;6.140;2022-07-17T03:29:26;4.38;;;1.70;;
15806;SDS011;8005;51.368;6.140;2022-07-17T03:30:58;5.70;;;2.30;;
15806;SDS011;8005;51.368;6.140;2022-07-17T03:32:31;6.10;;;1.75;;
15806;SDS011;8005;51.368;6.140;2022-07-17T03:34:03;6.38;;;2.10;;
15806;SDS011;8005;51.368;6.140;2022-07-17T03:35:35;5.78;;;1.70;;
15806;SDS011;8005;51.368;6.140;2022-07-17T03:37:08;3.90;;;2.17;;
15806;SDS011;8005;51.368;6.140;2022-07-17T03:38:40;5.05;;;1.50;;
15806;SDS011;8005;51.368;6.140;2022-07-17T03:40:12;5.40;;;1.73;;
15806;SDS011;8005;51.368;6.140;2022-07-17T03:41:48;6.55;;;1.70;;
15806;SDS011;8005;51.368;6.140;2022-07-17T03:43:20;5.13;;;2.05;;
15806;SDS011;8005;51.368;6.140;2022-07-17T03:44:52;7.07;;;2.05;;
15806;SDS011;8005;51.368;6.140;2022-07-17T03:46:24;7.45;;;1.92;;
15806;SDS011;8005;51.368;6.140;2022-07-17T03:47:59;5.25;;;2.05;;
15806;SDS011;8005;51.368;6.140;2022-07-17T03:49:34;8.07;;;1.90;;
15806;SDS011;8005;51.368;6.140;2022-07-17T03:51:06;4.50;;;2.15;;
15806;SDS011;8005;51.368;6.140;2022-07-17T03:52:38;7.38;;;2.17;;
15806;SDS011;8005;51.368;6.140;2022-07-17T03:54:13;4.75;;;1.90;;
15806;SDS011;8005;51.368;6.140;2022-07-17T03:55:46;3.45;;;1.73;;
15806;SDS011;8005;51.368;6.140;2022-07-17T03:57:20;4.88;;;2.20;;
15806;SDS011;8005;51.368;6.140;2022-07-17T03:59:00;4.40;;;2.17;;
15806;SDS011;8005;51.368;6.140;2022-07-17T04:00:33;6.78;;;2.17;;
15806;SDS011;8005;51.368;6.140;2022-07-17T04:02:05;5.93;;;1.85;;
15806;SDS011;8005;51.368;6.140;2022-07-17T04:03:48;6.40;;;2.40;;
15806;SDS011;8005;51.368;6.140;2022-07-17T04:05:21;6.32;;;2.00;;
15806;SDS011;8005;51.368;6.140;2022-07-17T04:06:54;4.95;;;1.88;;
15806;SDS011;8005;51.368;6.140;2022-07-17T04:08:26;6.93;;;2.45;;
15806;SDS011;8005;51.368;6.140;2022-07-17T04:10:01;4.22;;;2.20;;
15806;SDS011;8005;51.368;6.140;2022-07-17T04:11:33;7.47;;;2.30;;
15806;SDS011;8005;51.368;6.140;2022-07-17T04:13:05;7.50;;;2.25;;
15806;SDS011;8005;51.368;6.140;2022-07-17T04:14:37;6.03;;;2.35;;
15806;SDS011;8005;51.368;6.140;2022-07-17T04:16:12;7.05;;;2.30;;
15806;SDS011;8005;51.368;6.140;2022-07-17T04:17:44;6.68;;;2.20;;
15806;SDS011;8005;51.368;6.140;2022-07-17T04:19:18;9.38;;;1.92;;
15806;SDS011;8005;51.368;6.140;2022-07-17T04:20:59;8.02;;;2.55;;
15806;SDS011;8005;51.368;6.140;2022-07-17T04:22:33;5.65;;;2.72;;
15806;SDS011;8005;51.368;6.140;2022-07-17T04:24:05;7.22;;;2.40;;
15806;SDS011;8005;51.368;6.140;2022-07-17T04:25:38;7.22;;;2.22;;
15806;SDS011;8005;51.368;6.140;2022-07-17T04:27:11;5.13;;;2.40;;
15806;SDS011;8005;51.368;6.140;2022-07-17T04:28:47;7.97;;;2.40;;
15806;SDS011;8005;51.368;6.140;2022-07-17T04:30:31;8.30;;;2.58;;
15806;SDS011;8005;51.368;6.140;2022-07-17T04:32:03;7.60;;;2.30;;
15806;SDS011;8005;51.368;6.140;2022-07-17T04:33:36;13.10;;;2.50;;
15806;SDS011;8005;51.368;6.140;2022-07-17T04:35:09;6.68;;;2.20;;
15806;SDS011;8005;51.368;6.140;2022-07-17T04:36:43;5.25;;;1.90;;
15806;SDS011;8005;51.368;6.140;2022-07-17T04:38:18;8.13;;;2.38;;
15806;SDS011;8005;51.368;6.140;2022-07-17T04:39:53;6.50;;;2.25;;
15806;SDS011;8005;51.368;6.140;2022-07-17T04:41:26;5.40;;;2.50;;
15806;SDS011;8005;51.368;6.140;2022-07-17T04:42:59;7.55;;;2.95;;
15806;SDS011;8005;51.368;6.140;2022-07-17T04:44:34;8.02;;;2.40;;
15806;SDS011;8005;51.368;6.140;2022-07-17T04:46:06;6.03;;;2.40;;
15806;SDS011;8005;51.368;6.140;2022-07-17T04:47:38;7.60;;;2.50;;
15806;SDS011;8005;51.368;6.140;2022-07-17T04:49:11;7.10;;;3.78;;
15806;SDS011;8005;51.368;6.140;2022-07-17T04:50:43;8.85;;;2.75;;
15806;SDS011;8005;51.368;6.140;2022-07-17T04:52:15;6.78;;;2.25;;
15806;SDS011;8005;51.368;6.140;2022-07-17T04:53:48;5.25;;;2.70;;
15806;SDS011;8005;51.368;6.140;2022-07-17T04:55:22;5.85;;;2.13;;
15806;SDS011;8005;51.368;6.140;2022-07-17T04:57:03;9.85;;;2.80;;
15806;SDS011;8005;51.368;6.140;2022-07-17T04:58:39;7.82;;;2.25;;
15806;SDS011;8005;51.368;6.140;2022-07-17T05:00:12;7.60;;;2.30;;
15806;SDS011;8005;51.368;6.140;2022-07-17T05:01:46;7.18;;;2.30;;
15806;SDS011;8005;51.368;6.140;2022-07-17T05:03:22;6.13;;;2.40;;
15806;SDS011;8005;51.368;6.140;2022-07-17T05:05:09;7.55;;;2.58;;
15806;SDS011;8005;51.368;6.140;2022-07-17T05:06:56;10.30;;;2.42;;
15806;SDS011;8005;51.368;6.140;2022-07-17T05:08:28;6.55;;;2.17;;
15806;SDS011;8005;51.368;6.140;2022-07-17T05:10:15;13.25;;;2.90;;
15806;SDS011;8005;51.368;6.140;2022-07-17T05:11:58;4.85;;;2.70;;
15806;SDS011;8005;51.368;6.140;2022-07-17T05:13:38;8.98;;;2.45;;
15806;SDS011;8005;51.368;6.140;2022-07-17T05:15:21;5.85;;;2.30;;
15806;SDS011;8005;51.368;6.140;2022-07-17T05:16:54;5.50;;;2.45;;
15806;SDS011;8005;51.368;6.140;2022-07-17T05:18:27;6.88;;;2.33;;
15806;SDS011;8005;51.368;6.140;2022-07-17T05:20:00;8.30;;;2.65;;
15806;SDS011;8005;51.368;6.140;2022-07-17T05:22:25;7.40;;;2.63;;
15806;SDS011;8005;51.368;6.140;2022-07-17T05:24:28;5.32;;;2.15;;
15806;SDS011;8005;51.368;6.140;2022-07-17T05:26:25;8.85;;;2.38;;
15806;SDS011;8005;51.368;6.140;2022-07-17T05:29:00;7.97;;;2.20;;
15806;SDS011;8005;51.368;6.140;2022-07-17T05:30:36;4.88;;;2.08;;
15806;SDS011;8005;51.368;6.140;2022-07-17T05:32:08;6.95;;;2.35;;
15806;SDS011;8005;51.368;6.140;2022-07-17T05:33:40;11.20;;;2.60;;
15806;SDS011;8005;51.368;6.140;2022-07-17T05:35:13;8.05;;;2.30;;
15806;SDS011;8005;51.368;6.140;2022-07-17T05:36:45;8.88;;;2.50;;
15806;SDS011;8005;51.368;6.140;2022-07-17T05:38:17;10.13;;;2.20;;
15806;SDS011;8005;51.368;6.140;2022-07-17T05:39:50;5.82;;;2.45;;
15806;SDS011;8005;51.368;6.140;2022-07-17T05:41:31;3.42;;;2.03;;
15806;SDS011;8005;51.368;6.140;2022-07-17T05:43:03;8.60;;;2.60;;
15806;SDS011;8005;51.368;6.140;2022-07-17T05:45:20;8.20;;;2.72;;
15806;SDS011;8005;51.368;6.140;2022-07-17T05:47:17;7.47;;;2.50;;
15806;SDS011;8005;51.368;6.140;2022-07-17T05:48:50;6.78;;;2.10;;
15806;SDS011;8005;51.368;6.140;2022-07-17T05:50:22;7.63;;;2.63;;
15806;SDS011;8005;51.368;6.140;2022-07-17T05:51:57;6.93;;;2.78;;
15806;SDS011;8005;51.368;6.140;2022-07-17T05:53:34;6.22;;;2.78;;
15806;SDS011;8005;51.368;6.140;2022-07-17T05:55:16;7.30;;;2.40;;
15806;SDS011;8005;51.368;6.140;2022-07-17T05:56:54;3.80;;;2.40;;
15806;SDS011;8005;51.368;6.140;2022-07-17T05:58:29;5.43;;;2.40;;
15806;SDS011;8005;51.368;6.140;2022-07-17T06:00:03;6.18;;;2.75;;
15806;SDS011;8005;51.368;6.140;2022-07-17T06:01:42;9.02;;;3.00;;
15806;SDS011;8005;51.368;6.140;2022-07-17T06:03:15;7.93;;;2.83;;
15806;SDS011;8005;51.368;6.140;2022-07-17T06:04:49;9.38;;;2.63;;
15806;SDS011;8005;51.368;6.140;2022-07-17T06:06:21;6.18;;;2.20;;
15806;SDS011;8005;51.368;6.140;2022-07-17T06:07:54;7.13;;;2.85;;
15806;SDS011;8005;51.368;6.140;2022-07-17T06:09:29;9.90;;;2.78;;
15806;SDS011;8005;51.368;6.140;2022-07-17T06:11:07;12.15;;;3.00;;
15806;SDS011;8005;51.368;6.140;2022-07-17T06:12:40;10.10;;;2.63;;
15806;SDS011;8005;51.368;6.140;2022-07-17T06:14:13;7.43;;;2.70;;
15806;SDS011;8005;51.368;6.140;2022-07-17T06:15:45;6.25;;;1.90;;
15806;SDS011;8005;51.368;6.140;2022-07-17T06:17:18;5.75;;;2.67;;
15806;SDS011;8005;51.368;6.140;2022-07-17T06:18:51;8.82;;;2.58;;
15806;SDS011;8005;51.368;6.140;2022-07-17T06:20:26;7.07;;;2.92;;
15806;SDS011;8005;51.368;6.140;2022-07-17T06:21:59;7.10;;;2.33;;
15806;SDS011;8005;51.368;6.140;2022-07-17T06:23:32;9.52;;;2.53;;
15806;SDS011;8005;51.368;6.140;2022-07-17T06:25:12;9.63;;;2.42;;
15806;SDS011;8005;51.368;6.140;2022-07-17T06:26:47;8.48;;;2.55;;
15806;SDS011;8005;51.368;6.140;2022-07-17T06:28:22;7.57;;;2.40;;
15806;SDS011;8005;51.368;6.140;2022-07-17T06:29:59;6.15;;;2.67;;
15806;SDS011;8005;51.368;6.140;2022-07-17T06:31:31;9.13;;;3.25;;
15806;SDS011;8005;51.368;6.140;2022-07-17T06:33:04;6.85;;;2.58;;
15806;SDS011;8005;51.368;6.140;2022-07-17T06:34:37;8.73;;;2.38;;
15806;SDS011;8005;51.368;6.140;2022-07-17T06:36:11;6.57;;;2.80;;
15806;SDS011;8005;51.368;6.140;2022-07-17T06:37:43;9.82;;;2.97;;
15806;SDS011;8005;51.368;6.140;2022-07-17T06:39:15;10.15;;;2.60;;
15806;SDS011;8005;51.368;6.140;2022-07-17T06:40:48;5.50;;;2.25;;
15806;SDS011;8005;51.368;6.140;2022-07-17T06:42:20;6.63;;;2.47;;
15806;SDS011;8005;51.368;6.140;2022-07-17T06:43:51;8.53;;;2.70;;
15806;SDS011;8005;51.368;6.140;2022-07-17T06:45:23;6.70;;;2.70;;
15806;SDS011;8005;51.368;6.140;2022-07-17T06:46:55;9.02;;;2.33;;
15806;SDS011;8005;51.368;6.140;2022-07-17T06:48:27;7.22;;;2.38;;
15806;SDS011;8005;51.368;6.140;2022-07-17T06:50:00;9.05;;;1.98;;
15806;SDS011;8005;51.368;6.140;2022-07-17T06:51:32;8.93;;;2.50;;
15806;SDS011;8005;51.368;6.140;2022-07-17T06:53:04;8.65;;;2.50;;
15806;SDS011;8005;51.368;6.140;2022-07-17T06:54:35;4.55;;;2.42;;
15806;SDS011;8005;51.368;6.140;2022-07-17T06:56:07;14.27;;;2.80;;
15806;SDS011;8005;51.368;6.140;2022-07-17T06:57:40;10.07;;;2.47;;
15806;SDS011;8005;51.368;6.140;2022-07-17T06:59:11;5.93;;;2.28;;
15806;SDS011;8005;51.368;6.140;2022-07-17T07:00:43;7.15;;;2.45;;
15806;SDS011;8005;51.368;6.140;2022-07-17T07:02:15;5.93;;;2.38;;
15806;SDS011;8005;51.368;6.140;2022-07-17T07:03:47;8.30;;;2.40;;
15806;SDS011;8005;51.368;6.140;2022-07-17T07:05:19;7.10;;;2.00;;
15806;SDS011;8005;51.368;6.140;2022-07-17T07:06:52;8.95;;;2.40;;
15806;SDS011;8005;51.368;6.140;2022-07-17T07:08:24;9.55;;;2.50;;
15806;SDS011;8005;51.368;6.140;2022-07-17T07:09:56;5.23;;;2.20;;
15806;SDS011;8005;51.368;6.140;2022-07-17T07:11:27;5.55;;;2.10;;
15806;SDS011;8005;51.368;6.140;2022-07-17T07:13:02;8.05;;;1.83;;
15806;SDS011;8005;51.368;6.140;2022-07-17T07:14:34;7.40;;;2.45;;
15806;SDS011;8005;51.368;6.140;2022-07-17T07:16:06;5.87;;;2.17;;
15806;SDS011;8005;51.368;6.140;2022-07-17T07:17:40;11.95;;;2.45;;
15806;SDS011;8005;51.368;6.140;2022-07-17T07:19:14;6.60;;;1.83;;
15806;SDS011;8005;51.368;6.140;2022-07-17T07:20:46;8.05;;;1.90;;
15806;SDS011;8005;51.368;6.140;2022-07-17T07:22:19;8.27;;;2.20;;
15806;SDS011;8005;51.368;6.140;2022-07-17T07:23:58;7.65;;;2.42;;
15806;SDS011;8005;51.368;6.140;2022-07-17T07:25:30;5.82;;;1.90;;
15806;SDS011;8005;51.368;6.140;2022-07-17T07:27:02;6.57;;;2.17;;
15806;SDS011;8005;51.368;6.140;2022-07-17T07:28:34;7.22;;;1.90;;
15806;SDS011;8005;51.368;6.140;2022-07-17T07:30:07;5.55;;;1.77;;
15806;SDS011;8005;51.368;6.140;2022-07-17T07:31:42;5.28;;;1.73;;
15806;SDS011;8005;51.368;6.140;2022-07-17T07:33:14;7.93;;;2.13;;
15806;SDS011;8005;51.368;6.140;2022-07-17T07:34:48;11.82;;;2.05;;
15806;SDS011;8005;51.368;6.140;2022-07-17T07:37:56;8.10;;;2.17;;
15806;SDS011;8005;51.368;6.140;2022-07-17T07:39:28;5.82;;;1.83;;
15806;SDS011;8005;51.368;6.140;2022-07-17T07:41:00;7.97;;;2.10;;
15806;SDS011;8005;51.368;6.140;2022-07-17T07:42:33;4.15;;;1.60;;
15806;SDS011;8005;51.368;6.140;2022-07-17T07:44:07;6.50;;;2.10;;
15806;SDS011;8005;51.368;6.140;2022-07-17T07:45:39;7.72;;;2.10;;
15806;SDS011;8005;51.368;6.140;2022-07-17T07:47:11;4.93;;;2.20;;
15806;SDS011;8005;51.368;6.140;2022-07-17T07:48:43;7.25;;;1.65;;
15806;SDS011;8005;51.368;6.140;2022-07-17T07:50:15;5.75;;;1.73;;
15806;SDS011;8005;51.368;6.140;2022-07-17T07:51:47;10.23;;;2.60;;
15806;SDS011;8005;51.368;6.140;2022-07-17T07:53:33;9.68;;;1.67;;
15806;SDS011;8005;51.368;6.140;2022-07-17T07:55:06;6.22;;;1.52;;
15806;SDS011;8005;51.368;6.140;2022-07-17T07:56:39;5.68;;;1.63;;
15806;SDS011;8005;51.368;6.140;2022-07-17T07:58:12;9.05;;;1.85;;
15806;SDS011;8005;51.368;6.140;2022-07-17T07:59:45;7.43;;;1.27;;
15806;SDS011;8005;51.368;6.140;2022-07-17T08:02:49;5.60;;;1.45;;
15806;SDS011;8005;51.368;6.140;2022-07-17T08:04:21;7.30;;;1.98;;
15806;SDS011;8005;51.368;6.140;2022-07-17T08:05:59;8.05;;;2.08;;
15806;SDS011;8005;51.368;6.140;2022-07-17T08:07:31;6.32;;;1.58;;
15806;SDS011;8005;51.368;6.140;2022-07-17T08:09:03;6.25;;;1.67;;
15806;SDS011;8005;51.368;6.140;2022-07-17T08:10:35;3.95;;;1.00;;
15806;SDS011;8005;51.368;6.140;2022-07-17T08:12:07;7.93;;;1.27;;
15806;SDS011;8005;51.368;6.140;2022-07-17T08:14:02;7.00;;;1.40;;
15806;SDS011;8005;51.368;6.140;2022-07-17T08:15:43;7.25;;;1.70;;
15806;SDS011;8005;51.368;6.140;2022-07-17T08:17:15;6.45;;;1.23;;
15806;SDS011;8005;51.368;6.140;2022-07-17T08:18:47;4.60;;;1.20;;
15806;SDS011;8005;51.368;6.140;2022-07-17T08:20:19;2.67;;;0.93;;
15806;SDS011;8005;51.368;6.140;2022-07-17T08:21:52;9.38;;;1.50;;
15806;SDS011;8005;51.368;6.140;2022-07-17T08:23:24;6.22;;;1.30;;
15806;SDS011;8005;51.368;6.140;2022-07-17T08:24:56;3.72;;;1.05;;
15806;SDS011;8005;51.368;6.140;2022-07-17T08:26:28;5.03;;;1.45;;
15806;SDS011;8005;51.368;6.140;2022-07-17T08:28:00;4.78;;;1.40;;
15806;SDS011;8005;51.368;6.140;2022-07-17T08:29:37;7.68;;;1.55;;
15806;SDS011;8005;51.368;6.140;2022-07-17T08:31:29;4.78;;;1.50;;
15806;SDS011;8005;51.368;6.140;2022-07-17T08:33:05;7.70;;;1.50;;
15806;SDS011;8005;51.368;6.140;2022-07-17T08:34:38;5.18;;;1.40;;
15806;SDS011;8005;51.368;6.140;2022-07-17T08:36:10;7.43;;;1.80;;
15806;SDS011;8005;51.368;6.140;2022-07-17T08:37:42;6.38;;;1.77;;
15806;SDS011;8005;51.368;6.140;2022-07-17T08:39:18;7.25;;;1.65;;
15806;SDS011;8005;51.368;6.140;2022-07-17T08:40:50;6.05;;;1.70;;
15806;SDS011;8005;51.368;6.140;2022-07-17T08:42:25;5.20;;;1.63;;
15806;SDS011;8005;51.368;6.140;2022-07-17T08:44:06;3.85;;;1.13;;
15806;SDS011;8005;51.368;6.140;2022-07-17T08:45:39;5.35;;;1.25;;
15806;SDS011;8005;51.368;6.140;2022-07-17T08:47:20;9.30;;;1.98;;
15806;SDS011;8005;51.368;6.140;2022-07-17T08:50:33;5.82;;;1.20;;
15806;SDS011;8005;51.368;6.140;2022-07-17T08:52:06;7.43;;;1.45;;
15806;SDS011;8005;51.368;6.140;2022-07-17T08:53:38;6.55;;;1.15;;
15806;SDS011;8005;51.368;6.140;2022-07-17T08:55:11;9.18;;;1.45;;
15806;SDS011;8005;51.368;6.140;2022-07-17T08:56:45;5.97;;;1.45;;
15806;SDS011;8005;51.368;6.140;2022-07-17T08:58:17;5.10;;;1.30;;
15806;SDS011;8005;51.368;6.140;2022-07-17T08:59:49;5.20;;;1.20;;
15806;SDS011;8005;51.368;6.140;2022-07-17T09:01:21;7.05;;;1.40;;
15806;SDS011;8005;51.368;6.140;2022-07-17T09:02:57;2.75;;;1.40;;
15806;SDS011;8005;51.368;6.140;2022-07-17T09:04:30;4.43;;;1.00;;
15806;SDS011;8005;51.368;6.140;2022-07-17T09:06:02;3.58;;;1.05;;
15806;SDS011;8005;51.368;6.140;2022-07-17T09:07:45;6.78;;;1.42;;
15806;SDS011;8005;51.368;6.140;2022-07-17T09:09:18;5.63;;;0.93;;
15806;SDS011;8005;51.368;6.140;2022-07-17T09:10:51;4.93;;;1.23;;
15806;SDS011;8005;51.368;6.140;2022-07-17T09:12:28;8.00;;;1.20;;
15806;SDS011;8005;51.368;6.140;2022-07-17T09:14:01;5.82;;;0.93;;
15806;SDS011;8005;51.368;6.140;2022-07-17T09:15:33;5.80;;;1.70;;
15806;SDS011;8005;51.368;6.140;2022-07-17T09:17:15;6.30;;;1.40;;
15806;SDS011;8005;51.368;6.140;2022-07-17T09:18:48;5.07;;;1.00;;
15806;SDS011;8005;51.368;6.140;2022-07-17T09:20:21;5.15;;;1.25;;
15806;SDS011;8005;51.368;6.140;2022-07-17T09:23:42;3.90;;;1.05;;
15806;SDS011;8005;51.368;6.140;2022-07-17T09:25:14;5.38;;;1.40;;
15806;SDS011;8005;51.368;6.140;2022-07-17T09:26:46;4.20;;;1.33;;
15806;SDS011;8005;51.368;6.140;2022-07-17T09:28:18;6.57;;;1.40;;
15806;SDS011;8005;51.368;6.140;2022-07-17T09:31:37;7.88;;;1.40;;
15806;SDS011;8005;51.368;6.140;2022-07-17T09:33:14;7.10;;;1.38;;
15806;SDS011;8005;51.368;6.140;2022-07-17T09:34:51;5.65;;;1.55;;
15806;SDS011;8005;51.368;6.140;2022-07-17T09:36:25;5.95;;;2.00;;
15806;SDS011;8005;51.368;6.140;2022-07-17T09:37:57;7.35;;;2.15;;
15806;SDS011;8005;51.368;6.140;2022-07-17T09:39:36;6.10;;;2.03;;
15806;SDS011;8005;51.368;6.140;2022-07-17T09:41:20;4.18;;;1.83;;
15806;SDS011;8005;51.368;6.140;2022-07-17T09:42:55;6.32;;;1.52;;
15806;SDS011;8005;51.368;6.140;2022-07-17T09:44:30;4.95;;;1.67;;
15806;SDS011;8005;51.368;6.140;2022-07-17T09:46:02;9.32;;;2.15;;
15806;SDS011;8005;51.368;6.140;2022-07-17T09:47:35;5.88;;;1.50;;
15806;SDS011;8005;51.368;6.140;2022-07-17T09:49:09;4.55;;;1.33;;
15806;SDS011;8005;51.368;6.140;2022-07-17T09:50:41;4.28;;;1.30;;
15806;SDS011;8005;51.368;6.140;2022-07-17T09:52:13;6.93;;;1.92;;
15806;SDS011;8005;51.368;6.140;2022-07-17T09:54:00;6.15;;;2.40;;
15806;SDS011;8005;51.368;6.140;2022-07-17T09:55:45;8.45;;;1.80;;
15806;SDS011;8005;51.368;6.140;2022-07-17T09:57:43;7.40;;;1.42;;
15806;SDS011;8005;51.368;6.140;2022-07-17T09:59:12;4.28;;;1.38;;
15806;SDS011;8005;51.368;6.140;2022-07-17T10:00:44;4.20;;;1.13;;